sensor_id;sensor_type;location;lat;lon;timestamp;temperature;humidity
2042;DHT22;1026;51.460;7.252;2022-11-14T00:01:11;8.10;90.90
2042;DHT22;1026;51.460;7.252;2022-11-14T00:03:37;8.00;90.90
2042;DHT22;1026;51.460;7.252;2022-11-14T00:06:04;8.10;90.90
2042;DHT22;1026;51.460;7.252;2022-11-14T00:08:31;8.00;90.90
2042;DHT22;1026;51.460;7.252;2022-11-14T00:10:57;8.10;90.90
2042;DHT22;1026;51.460;7.252;2022-11-14T00:13:22;8.10;90.90
2042;DHT22;1026;51.460;7.252;2022-11-14T00:15:49;8.10;90.90
2042;DHT22;1026;51.460;7.252;2022-11-14T00:18:18;8.00;90.90
2042;DHT22;1026;51.460;7.252;2022-11-14T00:20:48;8.10;90.90
2042;DHT22;1026;51.460;7.252;2022-11-14T00:23:14;8.00;90.90
2042;DHT22;1026;51.460;7.252;2022-11-14T00:25:40;8.00;90.80
2042;DHT22;1026;51.460;7.252;2022-11-14T00:28:05;8.00;90.80
2042;DHT22;1026;51.460;7.252;2022-11-14T00:30:31;7.90;90.80
2042;DHT22;1026;51.460;7.252;2022-11-14T00:32:57;7.90;90.80
2042;DHT22;1026;51.460;7.252;2022-11-14T00:35:22;7.90;90.80
2042;DHT22;1026;51.460;7.252;2022-11-14T00:37:49;8.00;90.80
2042;DHT22;1026;51.460;7.252;2022-11-14T00:40:15;8.00;90.80
2042;DHT22;1026;51.460;7.252;2022-11-14T00:42:40;8.00;90.80
2042;DHT22;1026;51.460;7.252;2022-11-14T00:45:06;8.00;90.80
2042;DHT22;1026;51.460;7.252;2022-11-14T00:47:32;8.00;90.80
2042;DHT22;1026;51.460;7.252;2022-11-14T00:49:58;7.90;90.80
2042;DHT22;1026;51.460;7.252;2022-11-14T00:52:23;7.90;90.80
2042;DHT22;1026;51.460;7.252;2022-11-14T00:54:49;7.80;90.80
2042;DHT22;1026;51.460;7.252;2022-11-14T00:57:15;7.90;90.80
2042;DHT22;1026;51.460;7.252;2022-11-14T00:59:40;7.90;90.80
2042;DHT22;1026;51.460;7.252;2022-11-14T01:02:06;7.90;90.80
2042;DHT22;1026;51.460;7.252;2022-11-14T01:04:31;7.90;90.80
2042;DHT22;1026;51.460;7.252;2022-11-14T01:06:57;7.80;90.80
2042;DHT22;1026;51.460;7.252;2022-11-14T01:09:23;7.80;90.80
2042;DHT22;1026;51.460;7.252;2022-11-14T01:11:48;7.80;90.80
2042;DHT22;1026;51.460;7.252;2022-11-14T01:14:14;7.80;90.80
2042;DHT22;1026;51.460;7.252;2022-11-14T01:16:40;7.80;90.80
2042;DHT22;1026;51.460;7.252;2022-11-14T01:19:06;7.80;90.80
2042;DHT22;1026;51.460;7.252;2022-11-14T01:21:31;7.80;90.80
2042;DHT22;1026;51.460;7.252;2022-11-14T01:23:57;7.80;90.80
2042;DHT22;1026;51.460;7.252;2022-11-14T01:26:23;7.80;90.80
2042;DHT22;1026;51.460;7.252;2022-11-14T01:28:49;7.80;90.70
2042;DHT22;1026;51.460;7.252;2022-11-14T01:31:17;7.80;90.80
2042;DHT22;1026;51.460;7.252;2022-11-14T01:33:43;7.70;91.00
2042;DHT22;1026;51.460;7.252;2022-11-14T01:36:12;7.80;90.80
2042;DHT22;1026;51.460;7.252;2022-11-14T01:38:38;7.70;90.70
2042;DHT22;1026;51.460;7.252;2022-11-14T01:41:04;7.80;90.80
2042;DHT22;1026;51.460;7.252;2022-11-14T01:43:31;7.80;90.80
2042;DHT22;1026;51.460;7.252;2022-11-14T01:46:03;7.80;90.80
2042;DHT22;1026;51.460;7.252;2022-11-14T01:54:02;7.70;90.70
2042;DHT22;1026;51.460;7.252;2022-11-14T01:56:36;7.70;90.70
2042;DHT22;1026;51.460;7.252;2022-11-14T01:59:07;7.70;90.70
2042;DHT22;1026;51.460;7.252;2022-11-14T02:01:37;7.70;90.70
2042;DHT22;1026;51.460;7.252;2022-11-14T02:04:06;7.60;90.70
2042;DHT22;1026;51.460;7.252;2022-11-14T02:06:33;7.70;90.70
2042;DHT22;1026;51.460;7.252;2022-11-14T02:09:02;7.70;90.70
2042;DHT22;1026;51.460;7.252;2022-11-14T02:11:30;7.70;90.70
2042;DHT22;1026;51.460;7.252;2022-11-14T02:13:57;7.70;90.70
2042;DHT22;1026;51.460;7.252;2022-11-14T02:16:25;7.50;90.60
2042;DHT22;1026;51.460;7.252;2022-11-14T02:18:50;7.60;90.70
2042;DHT22;1026;51.460;7.252;2022-11-14T02:21:16;7.60;90.60
2042;DHT22;1026;51.460;7.252;2022-11-14T02:23:42;7.60;90.60
2042;DHT22;1026;51.460;7.252;2022-11-14T02:26:07;7.60;90.60
2042;DHT22;1026;51.460;7.252;2022-11-14T02:28:33;7.60;90.60
2042;DHT22;1026;51.460;7.252;2022-11-14T02:30:59;7.50;90.60
2042;DHT22;1026;51.460;7.252;2022-11-14T02:33:24;7.50;90.60
2042;DHT22;1026;51.460;7.252;2022-11-14T02:35:50;7.60;90.60
2042;DHT22;1026;51.460;7.252;2022-11-14T02:38:16;7.60;90.60
2042;DHT22;1026;51.460;7.252;2022-11-14T02:40:41;7.60;90.60
2042;DHT22;1026;51.460;7.252;2022-11-14T02:43:07;7.50;90.60
2042;DHT22;1026;51.460;7.252;2022-11-14T02:45:33;7.50;90.60
2042;DHT22;1026;51.460;7.252;2022-11-14T02:47:58;7.50;90.60
2042;DHT22;1026;51.460;7.252;2022-11-14T02:50:24;7.50;90.60
2042;DHT22;1026;51.460;7.252;2022-11-14T02:52:50;7.40;90.80
2042;DHT22;1026;51.460;7.252;2022-11-14T02:55:18;7.50;90.60
2042;DHT22;1026;51.460;7.252;2022-11-14T02:57:44;7.50;90.60
2042;DHT22;1026;51.460;7.252;2022-11-14T03:00:10;7.50;90.60
2042;DHT22;1026;51.460;7.252;2022-11-14T03:02:36;7.40;90.50
2042;DHT22;1026;51.460;7.252;2022-11-14T03:05:02;7.50;90.50
2042;DHT22;1026;51.460;7.252;2022-11-14T03:07:28;7.50;90.50
2042;DHT22;1026;51.460;7.252;2022-11-14T03:09:56;7.50;90.50
2042;DHT22;1026;51.460;7.252;2022-11-14T03:12:22;7.50;90.60
2042;DHT22;1026;51.460;7.252;2022-11-14T03:14:48;7.40;90.50
2042;DHT22;1026;51.460;7.252;2022-11-14T03:17:13;7.40;90.50
2042;DHT22;1026;51.460;7.252;2022-11-14T03:19:39;7.40;90.50
2042;DHT22;1026;51.460;7.252;2022-11-14T03:22:05;7.40;90.50
2042;DHT22;1026;51.460;7.252;2022-11-14T03:24:30;7.40;90.50
2042;DHT22;1026;51.460;7.252;2022-11-14T03:26:56;7.40;90.50
2042;DHT22;1026;51.460;7.252;2022-11-14T03:29:22;7.40;90.50
2042;DHT22;1026;51.460;7.252;2022-11-14T03:31:47;7.40;90.50
2042;DHT22;1026;51.460;7.252;2022-11-14T03:34:13;7.40;90.50
2042;DHT22;1026;51.460;7.252;2022-11-14T03:36:39;7.20;90.40
2042;DHT22;1026;51.460;7.252;2022-11-14T03:39:05;7.40;90.50
2042;DHT22;1026;51.460;7.252;2022-11-14T03:41:31;7.30;90.50
2042;DHT22;1026;51.460;7.252;2022-11-14T03:43:57;7.30;90.40
2042;DHT22;1026;51.460;7.252;2022-11-14T03:46:23;7.30;90.40
2042;DHT22;1026;51.460;7.252;2022-11-14T03:48:48;7.30;90.40
2042;DHT22;1026;51.460;7.252;2022-11-14T03:51:14;7.30;90.40
2042;DHT22;1026;51.460;7.252;2022-11-14T03:53:40;7.20;90.40
2042;DHT22;1026;51.460;7.252;2022-11-14T03:56:06;7.30;90.40
2042;DHT22;1026;51.460;7.252;2022-11-14T03:58:31;7.30;90.40
2042;DHT22;1026;51.460;7.252;2022-11-14T04:00:57;7.20;90.40
2042;DHT22;1026;51.460;7.252;2022-11-14T04:03:24;7.30;90.40
2042;DHT22;1026;51.460;7.252;2022-11-14T04:05:50;7.20;90.40
2042;DHT22;1026;51.460;7.252;2022-11-14T04:08:16;7.20;90.40
2042;DHT22;1026;51.460;7.252;2022-11-14T04:10:42;7.20;90.40
2042;DHT22;1026;51.460;7.252;2022-11-14T04:13:08;7.30;90.40
2042;DHT22;1026;51.460;7.252;2022-11-14T04:15:34;7.20;90.40
2042;DHT22;1026;51.460;7.252;2022-11-14T04:17:59;7.20;90.40
2042;DHT22;1026;51.460;7.252;2022-11-14T04:20:25;7.20;90.40
2042;DHT22;1026;51.460;7.252;2022-11-14T04:22:51;7.20;90.40
2042;DHT22;1026;51.460;7.252;2022-11-14T04:25:17;7.10;90.30
2042;DHT22;1026;51.460;7.252;2022-11-14T04:27:43;7.20;90.40
2042;DHT22;1026;51.460;7.252;2022-11-14T04:30:09;7.20;90.40
2042;DHT22;1026;51.460;7.252;2022-11-14T04:32:35;7.10;90.30
2042;DHT22;1026;51.460;7.252;2022-11-14T04:35:01;7.20;90.40
2042;DHT22;1026;51.460;7.252;2022-11-14T04:37:26;7.10;90.30
2042;DHT22;1026;51.460;7.252;2022-11-14T04:39:52;7.10;90.30
2042;DHT22;1026;51.460;7.252;2022-11-14T04:42:18;7.20;90.30
2042;DHT22;1026;51.460;7.252;2022-11-14T04:44:43;7.00;90.20
2042;DHT22;1026;51.460;7.252;2022-11-14T04:47:09;7.10;90.30
2042;DHT22;1026;51.460;7.252;2022-11-14T04:49:35;7.10;90.30
2042;DHT22;1026;51.460;7.252;2022-11-14T04:52:01;7.10;90.30
2042;DHT22;1026;51.460;7.252;2022-11-14T04:54:26;7.00;90.30
2042;DHT22;1026;51.460;7.252;2022-11-14T04:56:52;7.10;90.30
2042;DHT22;1026;51.460;7.252;2022-11-14T04:59:17;7.10;90.30
2042;DHT22;1026;51.460;7.252;2022-11-14T05:01:44;7.10;90.30
2042;DHT22;1026;51.460;7.252;2022-11-14T05:04:10;7.00;90.30
2042;DHT22;1026;51.460;7.252;2022-11-14T05:06:35;7.00;90.30
2042;DHT22;1026;51.460;7.252;2022-11-14T05:09:01;7.00;90.30
2042;DHT22;1026;51.460;7.252;2022-11-14T05:11:27;7.10;90.30
2042;DHT22;1026;51.460;7.252;2022-11-14T05:13:52;7.00;90.30
2042;DHT22;1026;51.460;7.252;2022-11-14T05:16:18;7.00;90.30
2042;DHT22;1026;51.460;7.252;2022-11-14T05:18:44;7.00;90.30
2042;DHT22;1026;51.460;7.252;2022-11-14T05:21:14;7.00;90.30
2042;DHT22;1026;51.460;7.252;2022-11-14T05:23:40;6.90;90.30
2042;DHT22;1026;51.460;7.252;2022-11-14T05:26:09;7.00;90.30
2042;DHT22;1026;51.460;7.252;2022-11-14T05:28:35;7.00;90.30
2042;DHT22;1026;51.460;7.252;2022-11-14T05:31:04;6.90;90.20
2042;DHT22;1026;51.460;7.252;2022-11-14T05:33:30;6.90;90.20
2042;DHT22;1026;51.460;7.252;2022-11-14T05:36:01;7.00;90.30
2042;DHT22;1026;51.460;7.252;2022-11-14T05:38:27;7.00;90.30
2042;DHT22;1026;51.460;7.252;2022-11-14T05:40:53;7.00;90.30
2042;DHT22;1026;51.460;7.252;2022-11-14T05:43:18;7.00;90.30
2042;DHT22;1026;51.460;7.252;2022-11-14T05:45:44;7.00;90.30
2042;DHT22;1026;51.460;7.252;2022-11-14T05:48:10;6.90;90.20
2042;DHT22;1026;51.460;7.252;2022-11-14T05:50:35;6.90;90.20
2042;DHT22;1026;51.460;7.252;2022-11-14T05:53:01;6.90;90.20
2042;DHT22;1026;51.460;7.252;2022-11-14T05:55:27;6.90;90.20
2042;DHT22;1026;51.460;7.252;2022-11-14T05:57:52;6.90;90.20
2042;DHT22;1026;51.460;7.252;2022-11-14T06:00:18;6.80;90.20
2042;DHT22;1026;51.460;7.252;2022-11-14T06:02:47;6.90;90.20
2042;DHT22;1026;51.460;7.252;2022-11-14T06:05:16;6.90;90.20
2042;DHT22;1026;51.460;7.252;2022-11-14T06:07:41;6.90;90.20
2042;DHT22;1026;51.460;7.252;2022-11-14T06:10:07;6.90;90.20
2042;DHT22;1026;51.460;7.252;2022-11-14T06:12:33;6.80;90.20
2042;DHT22;1026;51.460;7.252;2022-11-14T06:14:59;6.90;90.20
2042;DHT22;1026;51.460;7.252;2022-11-14T06:17:24;6.80;90.20
2042;DHT22;1026;51.460;7.252;2022-11-14T06:19:50;6.80;90.20
2042;DHT22;1026;51.460;7.252;2022-11-14T06:22:16;6.80;90.50
2042;DHT22;1026;51.460;7.252;2022-11-14T06:24:50;6.70;90.10
2042;DHT22;1026;51.460;7.252;2022-11-14T06:27:16;6.70;90.10
2042;DHT22;1026;51.460;7.252;2022-11-14T06:29:42;6.80;90.20
2042;DHT22;1026;51.460;7.252;2022-11-14T06:32:07;6.80;90.20
2042;DHT22;1026;51.460;7.252;2022-11-14T06:34:42;6.80;90.20
2042;DHT22;1026;51.460;7.252;2022-11-14T06:37:08;6.70;90.10
2042;DHT22;1026;51.460;7.252;2022-11-14T06:39:34;6.90;90.20
2042;DHT22;1026;51.460;7.252;2022-11-14T06:41:59;6.80;90.20
2042;DHT22;1026;51.460;7.252;2022-11-14T06:44:25;6.60;90.10
2042;DHT22;1026;51.460;7.252;2022-11-14T06:46:51;6.70;90.10
2042;DHT22;1026;51.460;7.252;2022-11-14T06:49:16;6.80;90.10
2042;DHT22;1026;51.460;7.252;2022-11-14T06:51:42;6.80;90.10
2042;DHT22;1026;51.460;7.252;2022-11-14T06:54:10;6.70;90.10
2042;DHT22;1026;51.460;7.252;2022-11-14T06:56:36;6.70;90.10
2042;DHT22;1026;51.460;7.252;2022-11-14T06:59:03;6.70;90.10
2042;DHT22;1026;51.460;7.252;2022-11-14T07:01:29;6.70;90.10
2042;DHT22;1026;51.460;7.252;2022-11-14T07:03:54;6.60;90.00
2042;DHT22;1026;51.460;7.252;2022-11-14T07:06:38;6.70;90.00
2042;DHT22;1026;51.460;7.252;2022-11-14T07:09:03;6.60;90.10
2042;DHT22;1026;51.460;7.252;2022-11-14T07:11:34;6.60;90.00
2042;DHT22;1026;51.460;7.252;2022-11-14T07:14:02;6.70;90.10
2042;DHT22;1026;51.460;7.252;2022-11-14T07:16:31;6.70;90.10
2042;DHT22;1026;51.460;7.252;2022-11-14T07:19:00;6.70;90.10
2042;DHT22;1026;51.460;7.252;2022-11-14T07:21:27;6.70;90.10
2042;DHT22;1026;51.460;7.252;2022-11-14T07:23:54;6.70;90.10
2042;DHT22;1026;51.460;7.252;2022-11-14T07:26:20;6.60;90.10
2042;DHT22;1026;51.460;7.252;2022-11-14T07:28:45;6.60;90.00
2042;DHT22;1026;51.460;7.252;2022-11-14T07:31:13;6.60;90.00
2042;DHT22;1026;51.460;7.252;2022-11-14T07:33:40;6.70;90.10
2042;DHT22;1026;51.460;7.252;2022-11-14T07:36:07;6.70;90.10
2042;DHT22;1026;51.460;7.252;2022-11-14T07:38:37;6.70;90.10
2042;DHT22;1026;51.460;7.252;2022-11-14T07:41:08;6.60;90.00
2042;DHT22;1026;51.460;7.252;2022-11-14T07:43:34;6.60;90.10
2042;DHT22;1026;51.460;7.252;2022-11-14T07:46:02;6.60;90.10
2042;DHT22;1026;51.460;7.252;2022-11-14T07:48:29;6.60;90.10
2042;DHT22;1026;51.460;7.252;2022-11-14T07:50:59;6.60;90.10
2042;DHT22;1026;51.460;7.252;2022-11-14T07:53:25;6.60;90.10
2042;DHT22;1026;51.460;7.252;2022-11-14T07:56:01;6.50;90.10
2042;DHT22;1026;51.460;7.252;2022-11-14T07:58:29;6.50;90.10
2042;DHT22;1026;51.460;7.252;2022-11-14T08:01:02;6.60;90.10
2042;DHT22;1026;51.460;7.252;2022-11-14T08:03:29;6.60;90.10
2042;DHT22;1026;51.460;7.252;2022-11-14T08:06:04;6.60;90.10
2042;DHT22;1026;51.460;7.252;2022-11-14T08:08:39;6.50;90.10
2042;DHT22;1026;51.460;7.252;2022-11-14T08:11:04;6.60;90.20
2042;DHT22;1026;51.460;7.252;2022-11-14T08:13:31;6.60;90.20
2042;DHT22;1026;51.460;7.252;2022-11-14T08:15:57;6.60;90.20
2042;DHT22;1026;51.460;7.252;2022-11-14T08:18:27;6.50;90.10
2042;DHT22;1026;51.460;7.252;2022-11-14T08:20:53;6.60;90.20
2042;DHT22;1026;51.460;7.252;2022-11-14T08:23:22;6.60;90.20
2042;DHT22;1026;51.460;7.252;2022-11-14T08:25:47;6.50;90.50
2042;DHT22;1026;51.460;7.252;2022-11-14T08:28:13;6.50;90.20
2042;DHT22;1026;51.460;7.252;2022-11-14T08:30:39;6.40;90.10
2042;DHT22;1026;51.460;7.252;2022-11-14T08:33:05;6.60;90.20
2042;DHT22;1026;51.460;7.252;2022-11-14T08:35:32;6.50;90.20
2042;DHT22;1026;51.460;7.252;2022-11-14T08:37:59;6.50;90.20
2042;DHT22;1026;51.460;7.252;2022-11-14T08:40:25;6.50;90.20
2042;DHT22;1026;51.460;7.252;2022-11-14T08:42:51;6.50;90.20
2042;DHT22;1026;51.460;7.252;2022-11-14T08:45:39;6.40;90.20
2042;DHT22;1026;51.460;7.252;2022-11-14T08:48:05;6.50;90.20
2042;DHT22;1026;51.460;7.252;2022-11-14T08:50:31;6.50;90.20
2042;DHT22;1026;51.460;7.252;2022-11-14T08:52:56;6.50;90.20
2042;DHT22;1026;51.460;7.252;2022-11-14T08:55:22;6.50;90.20
2042;DHT22;1026;51.460;7.252;2022-11-14T09:01:14;6.50;90.30
2042;DHT22;1026;51.460;7.252;2022-11-14T09:04:00;6.50;90.30
2042;DHT22;1026;51.460;7.252;2022-11-14T09:06:28;6.50;90.30
2042;DHT22;1026;51.460;7.252;2022-11-14T09:08:59;6.50;90.30
2042;DHT22;1026;51.460;7.252;2022-11-14T09:11:25;6.50;90.30
2042;DHT22;1026;51.460;7.252;2022-11-14T09:13:50;6.60;90.40
2042;DHT22;1026;51.460;7.252;2022-11-14T09:16:19;6.50;90.30
2042;DHT22;1026;51.460;7.252;2022-11-14T09:18:45;6.50;90.60
2042;DHT22;1026;51.460;7.252;2022-11-14T09:21:11;6.50;90.30
2042;DHT22;1026;51.460;7.252;2022-11-14T09:23:37;6.50;90.30
2042;DHT22;1026;51.460;7.252;2022-11-14T09:26:05;6.40;90.30
2042;DHT22;1026;51.460;7.252;2022-11-14T09:29:09;6.60;90.40
2042;DHT22;1026;51.460;7.252;2022-11-14T09:31:35;6.60;90.40
2042;DHT22;1026;51.460;7.252;2022-11-14T09:34:00;6.50;90.30
2042;DHT22;1026;51.460;7.252;2022-11-14T09:36:26;6.50;90.40
2042;DHT22;1026;51.460;7.252;2022-11-14T09:38:52;6.60;90.40
2042;DHT22;1026;51.460;7.252;2022-11-14T09:41:23;6.50;90.40
2042;DHT22;1026;51.460;7.252;2022-11-14T09:49:08;6.60;90.50
2042;DHT22;1026;51.460;7.252;2022-11-14T09:51:43;6.60;90.50
2042;DHT22;1026;51.460;7.252;2022-11-14T09:56:57;6.60;90.50
2042;DHT22;1026;51.460;7.252;2022-11-14T09:59:25;6.60;90.50
2042;DHT22;1026;51.460;7.252;2022-11-14T10:05:10;6.60;90.60
2042;DHT22;1026;51.460;7.252;2022-11-14T10:08:02;6.60;90.60
2042;DHT22;1026;51.460;7.252;2022-11-14T10:10:51;6.60;90.50
2042;DHT22;1026;51.460;7.252;2022-11-14T10:13:43;6.60;90.60
2042;DHT22;1026;51.460;7.252;2022-11-14T10:16:32;6.70;90.60
2042;DHT22;1026;51.460;7.252;2022-11-14T10:19:19;6.70;90.60
2042;DHT22;1026;51.460;7.252;2022-11-14T10:22:32;6.70;90.60
2042;DHT22;1026;51.460;7.252;2022-11-14T10:27:57;6.70;90.70
2042;DHT22;1026;51.460;7.252;2022-11-14T10:30:38;6.60;90.60
2042;DHT22;1026;51.460;7.252;2022-11-14T10:33:10;6.80;90.70
2042;DHT22;1026;51.460;7.252;2022-11-14T10:35:53;6.80;90.70
2042;DHT22;1026;51.460;7.252;2022-11-14T10:38:34;6.80;90.70
2042;DHT22;1026;51.460;7.252;2022-11-14T10:41:18;6.70;90.70
2042;DHT22;1026;51.460;7.252;2022-11-14T10:43:46;6.80;90.70
2042;DHT22;1026;51.460;7.252;2022-11-14T10:46:20;6.80;90.70
2042;DHT22;1026;51.460;7.252;2022-11-14T10:48:55;6.80;90.80
2042;DHT22;1026;51.460;7.252;2022-11-14T10:51:36;6.70;90.70
2042;DHT22;1026;51.460;7.252;2022-11-14T10:54:22;6.80;90.80
2042;DHT22;1026;51.460;7.252;2022-11-14T10:56:52;6.90;90.80
2042;DHT22;1026;51.460;7.252;2022-11-14T10:59:18;6.90;90.80
2042;DHT22;1026;51.460;7.252;2022-11-14T11:01:54;6.80;90.80
2042;DHT22;1026;51.460;7.252;2022-11-14T11:04:28;6.80;90.80
2042;DHT22;1026;51.460;7.252;2022-11-14T11:06:56;6.90;90.90
2042;DHT22;1026;51.460;7.252;2022-11-14T11:09:42;6.80;90.80
2042;DHT22;1026;51.460;7.252;2022-11-14T11:12:45;6.90;90.90
2042;DHT22;1026;51.460;7.252;2022-11-14T11:15:18;7.00;90.90
2042;DHT22;1026;51.460;7.252;2022-11-14T11:18:03;7.00;90.90
2042;DHT22;1026;51.460;7.252;2022-11-14T11:20:41;7.00;90.90
2042;DHT22;1026;51.460;7.252;2022-11-14T11:25:35;7.00;90.90
2042;DHT22;1026;51.460;7.252;2022-11-14T11:28:27;6.90;90.90
2042;DHT22;1026;51.460;7.252;2022-11-14T11:30:59;7.10;91.00
2042;DHT22;1026;51.460;7.252;2022-11-14T11:33:29;7.00;90.90
2042;DHT22;1026;51.460;7.252;2022-11-14T11:36:27;7.10;91.00
2042;DHT22;1026;51.460;7.252;2022-11-14T11:38:53;7.10;91.00
2042;DHT22;1026;51.460;7.252;2022-11-14T11:41:22;7.10;91.00
2042;DHT22;1026;51.460;7.252;2022-11-14T11:46:28;7.10;91.00
2042;DHT22;1026;51.460;7.252;2022-11-14T11:49:04;7.10;91.00
2042;DHT22;1026;51.460;7.252;2022-11-14T11:51:32;7.20;91.00
2042;DHT22;1026;51.460;7.252;2022-11-14T11:54:16;7.20;91.10
2042;DHT22;1026;51.460;7.252;2022-11-14T11:56:45;7.20;91.10
2042;DHT22;1026;51.460;7.252;2022-11-14T12:04:40;7.20;91.10
2042;DHT22;1026;51.460;7.252;2022-11-14T12:07:13;7.30;91.10
2042;DHT22;1026;51.460;7.252;2022-11-14T12:09:40;7.20;91.10
2042;DHT22;1026;51.460;7.252;2022-11-14T12:23:50;7.40;91.20
2042;DHT22;1026;51.460;7.252;2022-11-14T12:26:52;7.20;91.10
2042;DHT22;1026;51.460;7.252;2022-11-14T12:32:31;7.40;91.20
2042;DHT22;1026;51.460;7.252;2022-11-14T12:35:06;7.30;91.20
2042;DHT22;1026;51.460;7.252;2022-11-14T12:37:44;7.30;91.20
2042;DHT22;1026;51.460;7.252;2022-11-14T12:40:34;7.40;91.30
2042;DHT22;1026;51.460;7.252;2022-11-14T12:43:01;7.40;91.30
2042;DHT22;1026;51.460;7.252;2022-11-14T12:48:29;7.50;91.30
2042;DHT22;1026;51.460;7.252;2022-11-14T12:51:01;7.40;91.30
2042;DHT22;1026;51.460;7.252;2022-11-14T12:53:36;7.40;91.30
2042;DHT22;1026;51.460;7.252;2022-11-14T13:06:29;7.50;91.30
2042;DHT22;1026;51.460;7.252;2022-11-14T13:11:54;7.60;91.30
2042;DHT22;1026;51.460;7.252;2022-11-14T13:14:52;7.60;91.30
2042;DHT22;1026;51.460;7.252;2022-11-14T13:17:34;7.60;91.30
2042;DHT22;1026;51.460;7.252;2022-11-14T13:20:31;7.60;91.30
2042;DHT22;1026;51.460;7.252;2022-11-14T13:23:55;7.70;91.40
2042;DHT22;1026;51.460;7.252;2022-11-14T13:28:50;7.70;91.40
2042;DHT22;1026;51.460;7.252;2022-11-14T13:31:18;7.60;91.30
2042;DHT22;1026;51.460;7.252;2022-11-14T13:33:47;7.70;91.40
2042;DHT22;1026;51.460;7.252;2022-11-14T13:36:39;7.70;91.40
2042;DHT22;1026;51.460;7.252;2022-11-14T13:39:21;7.80;91.80
2042;DHT22;1026;51.460;7.252;2022-11-14T13:42:10;7.80;91.40
2042;DHT22;1026;51.460;7.252;2022-11-14T13:44:59;7.80;91.40
2042;DHT22;1026;51.460;7.252;2022-11-14T13:47:59;7.80;91.40
2042;DHT22;1026;51.460;7.252;2022-11-14T13:50:32;7.70;91.30
2042;DHT22;1026;51.460;7.252;2022-11-14T13:53:09;7.80;91.40
2042;DHT22;1026;51.460;7.252;2022-11-14T13:55:54;7.70;91.40
2042;DHT22;1026;51.460;7.252;2022-11-14T14:01:14;7.90;91.50
2042;DHT22;1026;51.460;7.252;2022-11-14T14:06:43;7.90;91.40
2042;DHT22;1026;51.460;7.252;2022-11-14T14:12:26;8.00;91.40
2042;DHT22;1026;51.460;7.252;2022-11-14T14:15:08;7.90;91.40
2042;DHT22;1026;51.460;7.252;2022-11-14T14:26:16;8.00;91.40
2042;DHT22;1026;51.460;7.252;2022-11-14T14:29:03;8.10;91.50
2042;DHT22;1026;51.460;7.252;2022-11-14T14:31:36;7.90;91.40
2042;DHT22;1026;51.460;7.252;2022-11-14T14:34:27;8.00;91.50
2042;DHT22;1026;51.460;7.252;2022-11-14T14:37:21;8.10;91.50
2042;DHT22;1026;51.460;7.252;2022-11-14T14:40:01;8.00;91.50
2042;DHT22;1026;51.460;7.252;2022-11-14T14:42:38;8.00;91.50
2042;DHT22;1026;51.460;7.252;2022-11-14T14:45:13;8.00;91.50
2042;DHT22;1026;51.460;7.252;2022-11-14T14:47:49;8.10;91.50
2042;DHT22;1026;51.460;7.252;2022-11-14T14:52:55;8.00;91.50
2042;DHT22;1026;51.460;7.252;2022-11-14T14:55:39;8.10;91.50
2042;DHT22;1026;51.460;7.252;2022-11-14T14:58:14;8.10;91.50
2042;DHT22;1026;51.460;7.252;2022-11-14T15:03:38;8.10;91.50
2042;DHT22;1026;51.460;7.252;2022-11-14T15:09:09;8.20;91.60
2042;DHT22;1026;51.460;7.252;2022-11-14T15:11:58;8.10;91.50
2042;DHT22;1026;51.460;7.252;2022-11-14T15:14:33;8.20;91.60
2042;DHT22;1026;51.460;7.252;2022-11-14T15:17:03;8.20;91.60
2042;DHT22;1026;51.460;7.252;2022-11-14T15:19:36;8.10;91.50
2042;DHT22;1026;51.460;7.252;2022-11-14T15:22:22;8.10;91.50
2042;DHT22;1026;51.460;7.252;2022-11-14T15:25:16;8.30;91.60
2042;DHT22;1026;51.460;7.252;2022-11-14T15:27:46;8.30;91.60
2042;DHT22;1026;51.460;7.252;2022-11-14T15:30:29;8.10;91.50
2042;DHT22;1026;51.460;7.252;2022-11-14T15:35:44;8.20;91.50
2042;DHT22;1026;51.460;7.252;2022-11-14T15:40:39;8.20;91.50
2042;DHT22;1026;51.460;7.252;2022-11-14T15:46:03;8.20;91.50
2042;DHT22;1026;51.460;7.252;2022-11-14T15:48:39;8.20;91.50
2042;DHT22;1026;51.460;7.252;2022-11-14T15:51:05;8.30;91.60
2042;DHT22;1026;51.460;7.252;2022-11-14T15:53:33;8.30;91.50
2042;DHT22;1026;51.460;7.252;2022-11-14T15:55:59;8.30;91.60
2042;DHT22;1026;51.460;7.252;2022-11-14T15:58:25;8.30;91.60
2042;DHT22;1026;51.460;7.252;2022-11-14T16:00:52;8.20;91.50
2042;DHT22;1026;51.460;7.252;2022-11-14T16:03:20;8.30;91.60
2042;DHT22;1026;51.460;7.252;2022-11-14T16:05:47;8.30;91.60
2042;DHT22;1026;51.460;7.252;2022-11-14T16:08:13;8.30;91.50
2042;DHT22;1026;51.460;7.252;2022-11-14T16:10:44;8.30;91.50
2042;DHT22;1026;51.460;7.252;2022-11-14T16:13:13;8.20;91.50
2042;DHT22;1026;51.460;7.252;2022-11-14T16:15:38;8.30;91.50
2042;DHT22;1026;51.460;7.252;2022-11-14T16:18:13;8.20;91.50
2042;DHT22;1026;51.460;7.252;2022-11-14T16:20:40;8.30;91.50
2042;DHT22;1026;51.460;7.252;2022-11-14T16:23:10;8.30;91.50
2042;DHT22;1026;51.460;7.252;2022-11-14T16:25:38;8.40;91.60
2042;DHT22;1026;51.460;7.252;2022-11-14T16:28:03;8.30;91.50
2042;DHT22;1026;51.460;7.252;2022-11-14T16:30:32;8.30;91.50
2042;DHT22;1026;51.460;7.252;2022-11-14T16:32:57;8.40;91.60
2042;DHT22;1026;51.460;7.252;2022-11-14T16:35:25;8.40;91.60
2042;DHT22;1026;51.460;7.252;2022-11-14T16:37:53;8.40;91.60
2042;DHT22;1026;51.460;7.252;2022-11-14T16:40:21;8.30;91.50
2042;DHT22;1026;51.460;7.252;2022-11-14T16:42:50;8.30;91.50
2042;DHT22;1026;51.460;7.252;2022-11-14T16:45:19;8.30;91.60
2042;DHT22;1026;51.460;7.252;2022-11-14T16:47:46;8.40;91.60
2042;DHT22;1026;51.460;7.252;2022-11-14T16:50:11;8.40;91.60
2042;DHT22;1026;51.460;7.252;2022-11-14T16:52:37;8.40;91.60
2042;DHT22;1026;51.460;7.252;2022-11-14T16:55:05;8.40;91.60
2042;DHT22;1026;51.460;7.252;2022-11-14T16:57:31;8.40;91.60
2042;DHT22;1026;51.460;7.252;2022-11-14T16:59:56;8.40;91.60
2042;DHT22;1026;51.460;7.252;2022-11-14T17:02:23;8.30;91.50
2042;DHT22;1026;51.460;7.252;2022-11-14T17:04:49;8.30;91.50
2042;DHT22;1026;51.460;7.252;2022-11-14T17:07:15;8.40;91.60
2042;DHT22;1026;51.460;7.252;2022-11-14T17:09:41;8.30;91.50
2042;DHT22;1026;51.460;7.252;2022-11-14T17:12:07;8.40;91.60
2042;DHT22;1026;51.460;7.252;2022-11-14T17:14:33;8.30;91.60
2042;DHT22;1026;51.460;7.252;2022-11-14T17:16:59;8.40;91.60
2042;DHT22;1026;51.460;7.252;2022-11-14T17:19:25;8.50;91.60
2042;DHT22;1026;51.460;7.252;2022-11-14T17:21:51;8.40;91.60
2042;DHT22;1026;51.460;7.252;2022-11-14T17:24:17;8.40;91.60
2042;DHT22;1026;51.460;7.252;2022-11-14T17:26:43;8.40;91.60
2042;DHT22;1026;51.460;7.252;2022-11-14T17:29:08;8.40;91.60
2042;DHT22;1026;51.460;7.252;2022-11-14T17:31:36;8.40;91.60
2042;DHT22;1026;51.460;7.252;2022-11-14T17:34:02;8.40;91.60
2042;DHT22;1026;51.460;7.252;2022-11-14T17:36:31;8.40;91.60
2042;DHT22;1026;51.460;7.252;2022-11-14T17:38:58;8.50;91.60
2042;DHT22;1026;51.460;7.252;2022-11-14T17:41:24;8.50;91.60
2042;DHT22;1026;51.460;7.252;2022-11-14T17:43:52;8.50;91.60
2042;DHT22;1026;51.460;7.252;2022-11-14T17:46:21;8.40;91.60
2042;DHT22;1026;51.460;7.252;2022-11-14T17:48:46;8.50;91.60
2042;DHT22;1026;51.460;7.252;2022-11-14T17:51:14;8.50;91.60
2042;DHT22;1026;51.460;7.252;2022-11-14T17:53:40;8.40;91.60
2042;DHT22;1026;51.460;7.252;2022-11-14T17:56:08;8.50;91.60
2042;DHT22;1026;51.460;7.252;2022-11-14T17:58:34;8.50;91.70
2042;DHT22;1026;51.460;7.252;2022-11-14T18:00:59;8.50;91.60
2042;DHT22;1026;51.460;7.252;2022-11-14T18:03:26;8.50;91.60
2042;DHT22;1026;51.460;7.252;2022-11-14T18:06:02;8.50;91.60
2042;DHT22;1026;51.460;7.252;2022-11-14T18:08:28;8.40;91.60
2042;DHT22;1026;51.460;7.252;2022-11-14T18:10:59;8.60;91.70
2042;DHT22;1026;51.460;7.252;2022-11-14T18:13:25;8.50;91.70
2042;DHT22;1026;51.460;7.252;2022-11-14T18:15:51;8.50;91.60